createdAt,value
2018-09-12T00:00:00.883Z,1.90
2018-09-12T00:02:30.585Z,2.13
2018-09-12T00:05:00.513Z,1.87
2018-09-12T00:07:30.212Z,2.27
2018-09-12T00:09:59.888Z,2.20
2018-09-12T00:12:29.623Z,2.17
2018-09-12T00:14:59.298Z,2.50
2018-09-12T00:17:29.019Z,2.10
2018-09-12T00:19:58.697Z,1.93
2018-09-12T00:22:28.343Z,2.13
2018-09-12T00:24:58.106Z,2.20
2018-09-12T00:27:27.752Z,1.90
2018-09-12T00:29:57.442Z,2.13
2018-09-12T00:32:27.109Z,2.13
2018-09-12T00:34:56.797Z,2.03
2018-09-12T00:37:26.495Z,2.27
2018-09-12T00:39:56.185Z,1.90
2018-09-12T00:42:25.964Z,2.17
2018-09-12T00:44:55.634Z,2.00
2018-09-12T00:47:25.349Z,2.33
2018-09-12T00:49:55.026Z,2.20
2018-09-12T00:52:24.688Z,1.93
2018-09-12T00:54:54.387Z,2.40
2018-09-12T00:57:24.049Z,2.33
2018-09-12T00:59:53.713Z,2.60
2018-09-12T01:02:23.526Z,2.17
2018-09-12T01:04:53.239Z,2.07
2018-09-12T01:07:22.940Z,2.37
2018-09-12T01:09:52.686Z,1.90
2018-09-12T01:12:22.409Z,2.00
2018-09-12T01:14:52.098Z,2.30
2018-09-12T01:17:21.757Z,2.20
2018-09-12T01:19:51.548Z,2.17
2018-09-12T01:22:21.237Z,2.17
2018-09-12T01:24:50.921Z,2.23
2018-09-12T01:27:20.641Z,2.90
2018-09-12T01:29:50.293Z,2.10
2018-09-12T01:32:19.943Z,2.10
2018-09-12T01:34:49.633Z,2.50
2018-09-12T01:37:19.312Z,2.47
2018-09-12T01:39:49.010Z,2.27
2018-09-12T01:42:18.671Z,2.43
2018-09-12T01:44:48.382Z,2.60
2018-09-12T01:47:18.036Z,2.20
2018-09-12T01:49:47.689Z,2.07
2018-09-12T01:52:17.749Z,2.50
2018-09-12T01:54:47.416Z,2.17
2018-09-12T01:57:17.105Z,2.50
2018-09-12T01:59:46.784Z,2.87
2018-09-12T02:02:16.472Z,2.63
2018-09-12T02:04:46.172Z,2.57
2018-09-12T02:07:15.857Z,2.20
2018-09-12T02:09:45.564Z,2.30
2018-09-12T02:12:15.265Z,2.67
2018-09-12T02:14:44.945Z,2.60
2018-09-12T02:17:14.664Z,2.20
2018-09-12T02:19:44.336Z,2.40
2018-09-12T02:22:14.126Z,2.67
2018-09-12T02:24:43.784Z,2.70
2018-09-12T02:27:13.497Z,2.30
2018-09-12T02:29:43.222Z,2.53
2018-09-12T02:32:12.909Z,2.67
2018-09-12T02:34:42.593Z,2.20
2018-09-12T02:37:12.292Z,2.53
2018-09-12T02:39:41.984Z,2.73
2018-09-12T02:42:11.334Z,2.27
2018-09-12T02:44:40.705Z,2.37
2018-09-12T02:47:15.273Z,2.53
2018-09-12T02:49:44.652Z,2.60
2018-09-12T02:52:14.020Z,2.30
2018-09-12T02:54:43.447Z,2.50
2018-09-12T02:57:12.931Z,2.60
2018-09-12T02:59:42.404Z,2.60
2018-09-12T03:02:12.141Z,2.63
2018-09-12T03:04:41.576Z,2.67
2018-09-12T03:07:10.997Z,2.63
2018-09-12T03:09:40.345Z,2.60
2018-09-12T03:12:09.716Z,2.17
2018-09-12T03:14:39.101Z,2.43
2018-09-12T03:17:08.474Z,2.17
2018-09-12T03:19:38.262Z,2.27
2018-09-12T03:22:08.037Z,2.33
2018-09-12T03:24:37.822Z,2.30
2018-09-12T03:27:07.579Z,2.60
2018-09-12T03:29:37.256Z,2.20
2018-09-12T03:32:07.073Z,2.70
2018-09-12T03:34:36.754Z,2.60
2018-09-12T03:37:06.520Z,2.17
2018-09-12T03:39:36.198Z,2.90
2018-09-12T03:42:05.908Z,2.50
2018-09-12T03:44:35.600Z,2.30
2018-09-12T03:47:05.265Z,2.90
2018-09-12T03:49:34.955Z,2.43
2018-09-12T03:52:04.632Z,2.30
2018-09-12T03:54:34.325Z,2.70
2018-09-12T03:57:03.988Z,2.30
2018-09-12T03:59:33.683Z,2.43
2018-09-12T04:02:03.384Z,2.47
2018-09-12T04:04:33.065Z,2.63
2018-09-12T04:07:02.767Z,2.27
2018-09-12T04:09:32.449Z,2.30
2018-09-12T04:12:02.149Z,2.00
2018-09-12T04:14:31.812Z,2.50
2018-09-12T04:17:02.562Z,2.13
2018-09-12T04:19:32.420Z,2.30
2018-09-12T04:22:02.148Z,2.07
2018-09-12T04:24:32.301Z,2.23
2018-09-12T04:27:02.014Z,2.30
2018-09-12T04:29:31.700Z,2.30
2018-09-12T04:32:01.449Z,2.13
2018-09-12T04:34:31.124Z,2.07
2018-09-12T04:37:00.761Z,2.50
2018-09-12T04:39:30.455Z,2.40
2018-09-12T04:42:00.183Z,1.93
2018-09-12T04:44:29.845Z,2.60
2018-09-12T04:46:59.730Z,2.37
2018-09-12T04:49:29.565Z,2.13
2018-09-12T04:51:59.224Z,1.90
2018-09-12T04:54:28.873Z,2.10
2018-09-12T04:56:58.584Z,2.63
2018-09-12T04:59:28.252Z,2.10
2018-09-12T05:01:57.920Z,2.20
2018-09-12T05:04:27.654Z,2.27
2018-09-12T05:06:57.329Z,2.40
2018-09-12T05:09:27.038Z,2.20
2018-09-12T05:11:56.750Z,2.30
2018-09-12T05:14:26.448Z,2.53
2018-09-12T05:16:56.157Z,2.40
2018-09-12T05:19:25.858Z,2.30
2018-09-12T05:21:55.594Z,2.63
2018-09-12T05:24:25.306Z,2.30
2018-09-12T05:26:55.007Z,2.40
2018-09-12T05:29:24.718Z,2.30
2018-09-12T05:31:54.418Z,2.43
2018-09-12T05:34:24.126Z,2.20
2018-09-12T05:36:53.808Z,2.20
2018-09-12T05:39:23.560Z,2.10
2018-09-12T05:41:53.287Z,2.07
2018-09-12T05:44:22.980Z,2.43
2018-09-12T05:46:52.694Z,2.17
2018-09-12T05:49:22.393Z,2.23
2018-09-12T05:51:52.136Z,2.20
2018-09-12T05:54:21.840Z,2.30
2018-09-12T05:56:51.600Z,2.43
2018-09-12T05:59:21.258Z,2.30
2018-09-12T06:01:50.961Z,2.30
2018-09-12T06:04:20.703Z,2.20
2018-09-12T06:06:50.448Z,2.73
2018-09-12T06:09:20.136Z,2.43
2018-09-12T06:11:49.822Z,2.20
2018-09-12T06:14:19.894Z,2.37
2018-09-12T06:16:49.665Z,2.30
2018-09-12T06:19:19.380Z,2.60
2018-09-12T06:21:49.109Z,2.13
2018-09-12T06:24:18.808Z,2.60
2018-09-12T06:26:48.521Z,2.50
2018-09-12T06:29:18.341Z,2.17
2018-09-12T06:31:48.015Z,2.33
2018-09-12T06:34:17.704Z,2.47
2018-09-12T06:36:47.456Z,2.27
2018-09-12T06:39:17.187Z,2.17
2018-09-12T06:41:46.912Z,2.20
2018-09-12T06:44:16.606Z,1.90
2018-09-12T06:46:46.325Z,2.20
2018-09-12T06:49:22.479Z,2.30
2018-09-12T06:51:52.657Z,2.00
2018-09-12T06:54:22.354Z,1.63
2018-09-12T06:56:52.177Z,2.07
2018-09-12T06:59:21.912Z,2.03
2018-09-12T07:01:51.632Z,1.90
2018-09-12T07:04:24.422Z,1.80
2018-09-12T07:06:54.111Z,1.90
2018-09-12T07:09:23.854Z,1.83
2018-09-12T07:11:53.567Z,1.90
2018-09-12T07:14:23.348Z,2.10
2018-09-12T07:16:53.064Z,2.00
2018-09-12T07:19:23.235Z,2.00
2018-09-12T07:21:53.096Z,2.00
2018-09-12T07:24:22.844Z,1.93
2018-09-12T07:26:52.585Z,2.07
2018-09-12T07:29:22.296Z,2.07
2018-09-12T07:31:51.973Z,2.47
2018-09-12T07:34:21.696Z,2.23
2018-09-12T07:36:51.640Z,2.30
2018-09-12T07:39:21.337Z,2.13
2018-09-12T07:41:51.154Z,2.40
2018-09-12T07:44:20.877Z,2.67
2018-09-12T07:46:50.588Z,2.70
2018-09-12T07:49:20.288Z,2.70
2018-09-12T07:51:49.984Z,2.43
2018-09-12T07:54:19.676Z,2.50
2018-09-12T07:56:49.361Z,2.77
2018-09-12T07:59:19.076Z,2.90
2018-09-12T08:01:48.781Z,2.33
2018-09-12T08:04:18.510Z,3.10
2018-09-12T08:06:48.285Z,3.60
2018-09-12T08:09:17.985Z,3.03
2018-09-12T08:11:47.709Z,3.40
2018-09-12T08:14:17.451Z,3.90
2018-09-12T08:16:47.151Z,3.67
2018-09-12T08:19:16.849Z,3.37
2018-09-12T08:21:46.577Z,3.30
2018-09-12T08:24:16.297Z,3.57
2018-09-12T08:26:46.016Z,2.73
2018-09-12T08:29:15.723Z,2.90
2018-09-12T08:31:45.497Z,3.10
2018-09-12T08:34:15.192Z,2.90
2018-09-12T08:36:44.890Z,2.40
2018-09-12T08:39:14.593Z,2.60
2018-09-12T08:41:44.333Z,2.40
2018-09-12T08:44:14.012Z,2.55
2018-09-12T08:46:43.725Z,2.05
2018-09-12T08:49:13.477Z,2.87
2018-09-12T08:51:43.186Z,2.40
2018-09-12T08:54:12.867Z,2.40
2018-09-12T08:56:42.606Z,2.80
2018-09-12T08:59:12.293Z,2.50
2018-09-12T09:01:42.052Z,2.37
2018-09-12T09:04:11.813Z,2.70
2018-09-12T09:06:41.458Z,2.55
2018-09-12T09:09:12.257Z,2.47
2018-09-12T09:11:41.953Z,2.20
2018-09-12T09:14:11.751Z,2.10
2018-09-12T09:16:41.432Z,2.12
2018-09-12T09:19:11.159Z,2.08
2018-09-12T09:21:40.866Z,2.22
2018-09-12T09:24:10.553Z,2.05
2018-09-12T09:26:40.280Z,2.10
2018-09-12T09:29:09.986Z,2.05
2018-09-12T09:31:39.681Z,1.90
2018-09-12T09:34:09.404Z,2.10
2018-09-12T09:36:39.094Z,2.08
2018-09-12T09:39:10.973Z,1.80
2018-09-12T09:41:40.986Z,1.95
2018-09-12T09:44:10.900Z,2.02
2018-09-12T09:46:40.745Z,1.90
2018-09-12T09:49:10.493Z,2.05
2018-09-12T09:51:40.186Z,1.80
2018-09-12T09:54:09.879Z,1.90
2018-09-12T09:56:39.593Z,2.00
2018-09-12T09:59:09.264Z,2.10
2018-09-12T10:01:44.189Z,1.95
2018-09-12T10:04:18.928Z,2.17
2018-09-12T10:06:53.733Z,2.17
2018-09-12T10:09:28.556Z,1.92
2018-09-12T10:11:58.450Z,2.08
2018-09-12T10:14:28.365Z,1.80
2018-09-12T10:16:58.096Z,1.60
2018-09-12T10:19:27.837Z,1.50
2018-09-12T10:21:57.736Z,1.40
2018-09-12T10:24:27.521Z,1.40
2018-09-12T10:26:57.632Z,1.50
2018-09-12T10:29:27.331Z,1.27
2018-09-12T10:31:57.021Z,1.50
2018-09-12T10:34:26.731Z,1.45
2018-09-12T10:36:56.460Z,1.42
2018-09-12T10:39:26.204Z,1.20
2018-09-12T10:41:55.986Z,1.50
2018-09-12T10:44:25.711Z,1.30
2018-09-12T10:46:55.418Z,1.40
2018-09-12T10:49:25.134Z,1.62
2018-09-12T10:51:54.837Z,1.45
2018-09-12T10:54:24.595Z,1.50
2018-09-12T10:56:54.304Z,1.75
2018-09-12T10:59:24.015Z,1.45
2018-09-12T11:01:53.745Z,1.30
2018-09-12T11:04:23.463Z,1.30
2018-09-12T11:06:53.607Z,1.42
2018-09-12T11:09:23.301Z,1.42
2018-09-12T11:11:53.095Z,1.40
2018-09-12T11:14:22.791Z,1.82
2018-09-12T11:16:52.509Z,1.67
2018-09-12T11:19:22.248Z,2.00
2018-09-12T11:21:52.080Z,1.70
2018-09-12T11:24:21.776Z,1.50
2018-09-12T11:26:51.476Z,1.27
2018-09-12T11:29:21.264Z,1.70
2018-09-12T11:31:50.964Z,2.00
2018-09-12T11:34:20.766Z,1.67
2018-09-12T11:36:50.448Z,1.60
2018-09-12T11:39:20.174Z,2.02
2018-09-12T11:41:49.867Z,1.77
2018-09-12T11:44:19.565Z,1.95
2018-09-12T11:46:49.268Z,1.95
2018-09-12T11:49:18.961Z,2.20
2018-09-12T11:51:48.704Z,1.85
2018-09-12T11:54:18.428Z,1.77
2018-09-12T11:56:48.193Z,1.60
2018-09-12T11:59:17.896Z,2.00
2018-09-12T12:01:47.643Z,3.55
2018-09-12T12:04:17.947Z,2.70
2018-09-12T12:06:47.757Z,3.50
2018-09-12T12:09:17.514Z,3.55
2018-09-12T12:11:47.233Z,4.33
2018-09-12T12:14:16.932Z,4.28
2018-09-12T12:16:46.737Z,4.15
2018-09-12T12:19:16.396Z,3.75
2018-09-12T12:21:46.144Z,3.30
2018-09-12T12:24:15.847Z,3.95
2018-09-12T12:26:45.613Z,4.40
2018-09-12T12:29:15.584Z,4.10
2018-09-12T12:31:45.309Z,3.95
2018-09-12T12:34:16.060Z,4.58
2018-09-12T12:36:45.785Z,4.30
2018-09-12T12:39:15.518Z,4.87
2018-09-12T12:41:45.261Z,5.05
2018-09-12T12:44:14.977Z,5.67
2018-09-12T12:46:44.698Z,5.35
2018-09-12T12:49:14.395Z,6.83
2018-09-12T12:51:44.119Z,7.03
2018-09-12T12:54:13.810Z,6.20
2018-09-12T12:56:43.501Z,5.83
2018-09-12T12:59:13.277Z,5.83
2018-09-12T13:01:42.993Z,6.65
2018-09-12T13:04:12.687Z,5.10
2018-09-12T13:06:42.409Z,6.05
2018-09-12T13:09:12.097Z,6.05
2018-09-12T13:11:41.846Z,7.53
2018-09-12T13:14:11.574Z,6.65
2018-09-12T13:16:41.312Z,6.75
2018-09-12T13:19:11.000Z,6.12
2018-09-12T13:21:40.807Z,6.85
2018-09-12T13:24:10.423Z,7.10
2018-09-12T13:26:40.101Z,7.22
2018-09-12T13:29:09.907Z,8.25
2018-09-12T13:31:39.599Z,9.10
2018-09-12T13:34:09.389Z,8.58
2018-09-12T13:36:39.099Z,9.88
2018-09-12T13:39:15.730Z,8.85
2018-09-12T13:41:45.444Z,8.53
2018-09-12T13:44:15.498Z,7.50
2018-09-12T13:46:45.197Z,7.03
2018-09-12T13:49:14.889Z,6.65
2018-09-12T13:51:44.628Z,8.83
2018-09-12T13:54:14.313Z,9.90
2018-09-12T13:56:44.135Z,8.03
2018-09-12T13:59:13.773Z,7.45
2018-09-12T14:01:43.510Z,8.20
2018-09-12T14:04:13.208Z,8.40
2018-09-12T14:06:42.941Z,7.87
2018-09-12T14:09:12.820Z,7.47
2018-09-12T14:11:42.591Z,6.37
2018-09-12T14:14:12.355Z,5.62
2018-09-12T14:16:42.101Z,5.12
2018-09-12T14:19:11.800Z,4.12
2018-09-12T14:21:41.521Z,4.40
2018-09-12T14:24:11.193Z,3.98
2018-09-12T14:26:40.882Z,4.28
2018-09-12T14:29:10.630Z,3.10
2018-09-12T14:31:40.324Z,2.80
2018-09-12T14:34:10.198Z,3.00
2018-09-12T14:36:39.889Z,3.00
2018-09-12T14:39:10.407Z,2.70
2018-09-12T14:41:40.324Z,4.90
2018-09-12T14:44:10.045Z,4.97
2018-09-12T14:46:39.744Z,6.37
2018-09-12T14:49:09.434Z,6.30
2018-09-12T14:51:39.144Z,5.70
2018-09-12T14:54:08.851Z,5.57
2018-09-12T14:56:38.540Z,4.97
2018-09-12T14:59:08.504Z,4.83
2018-09-12T15:01:38.188Z,4.67
2018-09-12T15:04:07.913Z,4.13
2018-09-12T15:06:37.647Z,3.80
2018-09-12T15:09:10.275Z,4.23
2018-09-12T15:11:40.014Z,3.30
2018-09-12T15:14:10.112Z,2.83
2018-09-12T15:16:40.030Z,2.90
2018-09-12T15:19:09.792Z,2.30
2018-09-12T15:21:39.524Z,2.40
2018-09-12T15:24:09.257Z,2.50
2018-09-12T15:26:38.961Z,2.17
2018-09-12T15:29:08.817Z,1.50
2018-09-12T15:31:38.512Z,1.37
2018-09-12T15:34:08.244Z,1.10
2018-09-12T15:36:37.950Z,1.70
2018-09-12T15:39:09.912Z,1.40
2018-09-12T15:41:39.722Z,1.40
2018-09-12T15:44:15.967Z,1.57
2018-09-12T15:46:45.677Z,2.60
2018-09-12T15:49:15.422Z,2.77
2018-09-12T15:51:45.186Z,2.80
2018-09-12T15:54:14.876Z,2.80
2018-09-12T15:56:44.623Z,2.63
2018-09-12T15:59:14.348Z,1.93
2018-09-12T16:01:44.077Z,2.70
2018-09-12T16:04:13.771Z,2.00
2018-09-12T16:06:43.505Z,1.47
2018-09-12T16:09:13.292Z,1.90
2018-09-12T16:11:42.969Z,1.50
2018-09-12T16:14:12.725Z,2.30
2018-09-12T16:16:42.517Z,2.90
2018-09-12T16:19:12.466Z,3.70
2018-09-12T16:21:42.177Z,2.50
2018-09-12T16:24:11.878Z,3.20
2018-09-12T16:26:41.600Z,2.70
2018-09-12T16:29:11.377Z,2.43
2018-09-12T16:31:41.113Z,2.40
2018-09-12T16:34:10.803Z,2.10
2018-09-12T16:36:40.642Z,1.47
2018-09-12T16:39:12.205Z,1.00
2018-09-12T16:41:42.251Z,0.80
2018-09-12T16:44:11.969Z,0.70
2018-09-12T16:46:41.690Z,0.60
2018-09-12T16:49:11.397Z,0.60
2018-09-12T16:51:41.141Z,0.30
2018-09-12T16:54:12.335Z,0.40
2018-09-12T16:56:42.133Z,0.40
2018-09-12T16:59:11.853Z,0.30
2018-09-12T17:01:41.556Z,0.47
2018-09-12T17:04:11.278Z,0.40
2018-09-12T17:06:40.978Z,0.30
2018-09-12T17:09:11.661Z,0.30
2018-09-12T17:11:41.352Z,0.23
2018-09-12T17:14:11.183Z,0.50
2018-09-12T17:16:40.817Z,0.40
2018-09-12T17:19:10.522Z,0.40
2018-09-12T17:21:40.244Z,0.53
2018-09-12T17:24:09.976Z,0.57
2018-09-12T17:26:39.723Z,0.67
2018-09-12T17:29:09.444Z,0.70
2018-09-12T17:31:39.147Z,0.80
2018-09-12T17:34:08.898Z,0.90
2018-09-12T17:36:38.649Z,1.10
2018-09-12T17:39:09.553Z,1.30
2018-09-12T17:41:39.402Z,1.40
2018-09-12T17:44:09.186Z,1.97
2018-09-12T17:46:38.905Z,2.60
2018-09-12T17:49:08.656Z,2.63
2018-09-12T17:51:38.398Z,2.87
2018-09-12T17:54:08.087Z,3.10
2018-09-12T17:56:37.880Z,3.10
2018-09-12T17:59:07.699Z,4.67
2018-09-12T18:01:37.454Z,5.10
2018-09-12T18:04:07.209Z,6.07
2018-09-12T18:06:36.938Z,5.93
2018-09-12T18:09:08.695Z,6.87
2018-09-12T18:11:38.425Z,6.87
2018-09-12T18:14:08.156Z,9.20
2018-09-12T18:16:37.915Z,8.47
2018-09-12T18:19:07.634Z,8.57
2018-09-12T18:21:37.442Z,7.80
2018-09-12T18:24:07.340Z,7.80
2018-09-12T18:26:37.100Z,8.03
2018-09-12T18:29:06.924Z,7.13
2018-09-12T18:31:36.699Z,8.13
2018-09-12T18:34:06.589Z,7.57
2018-09-12T18:36:36.304Z,7.20
2018-09-12T18:39:08.717Z,7.40
2018-09-12T18:41:38.495Z,7.70
2018-09-12T18:44:08.659Z,5.87
2018-09-12T18:46:38.368Z,5.97
2018-09-12T18:49:08.120Z,5.33
2018-09-12T18:51:37.820Z,4.63
2018-09-12T18:54:07.679Z,3.40
2018-09-12T18:56:37.630Z,4.03
2018-09-12T18:59:07.343Z,4.10
2018-09-12T19:01:37.108Z,4.93
2018-09-12T19:04:06.829Z,4.47
2018-09-12T19:06:36.632Z,4.97
2018-09-12T19:09:08.844Z,5.30
2018-09-12T19:11:38.541Z,6.37
2018-09-12T19:14:08.357Z,7.47
2018-09-12T19:16:38.056Z,7.10
2018-09-12T19:19:07.808Z,6.13
2018-09-12T19:21:37.519Z,5.93
2018-09-12T19:24:07.653Z,3.73
2018-09-12T19:26:37.417Z,3.60
2018-09-12T19:29:07.121Z,3.00
2018-09-12T19:31:36.920Z,3.30
2018-09-12T19:34:06.636Z,3.00
2018-09-12T19:36:36.324Z,3.17
2018-09-12T19:39:07.744Z,2.73
2018-09-12T19:41:37.544Z,3.17
2018-09-12T19:44:07.258Z,2.90
2018-09-12T19:46:36.944Z,3.00
2018-09-12T19:49:06.705Z,3.00
2018-09-12T19:51:36.412Z,2.80
2018-09-12T19:54:06.169Z,3.57
2018-09-12T19:56:35.924Z,2.90
2018-09-12T19:59:05.652Z,3.63
2018-09-12T20:01:35.414Z,3.53
2018-09-12T20:04:05.221Z,4.73
2018-09-12T20:06:34.925Z,3.50
2018-09-12T20:09:06.370Z,4.00
2018-09-12T20:11:36.077Z,3.37
2018-09-12T20:14:05.852Z,3.57
2018-09-12T20:16:35.874Z,2.87
2018-09-12T20:19:05.637Z,3.20
2018-09-12T20:21:35.478Z,2.80
2018-09-12T20:24:05.198Z,3.10
2018-09-12T20:26:35.265Z,2.27
2018-09-12T20:29:04.988Z,2.60
2018-09-12T20:31:34.685Z,2.00
2018-09-12T20:34:04.440Z,1.80
2018-09-12T20:36:34.131Z,1.50
2018-09-12T20:39:03.992Z,1.60
2018-09-12T20:41:33.657Z,2.37
2018-09-12T20:44:03.376Z,2.00
2018-09-12T20:46:33.055Z,1.80
2018-09-12T20:49:02.857Z,1.50
2018-09-12T20:51:32.562Z,1.50
2018-09-12T20:54:02.311Z,1.60
2018-09-12T20:56:32.012Z,1.53
2018-09-12T20:59:01.701Z,1.23
2018-09-12T21:01:31.430Z,2.00
2018-09-12T21:04:01.127Z,2.00
2018-09-12T21:06:30.800Z,1.90
2018-09-12T21:09:00.561Z,1.50
2018-09-12T21:11:30.296Z,1.57
2018-09-12T21:13:59.979Z,1.27
2018-09-12T21:16:29.692Z,1.43
2018-09-12T21:18:59.378Z,1.67
2018-09-12T21:21:29.079Z,1.10
2018-09-12T21:23:58.753Z,1.17
2018-09-12T21:26:28.788Z,1.23
2018-09-12T21:28:58.532Z,1.60
2018-09-12T21:31:28.247Z,1.43
2018-09-12T21:33:57.953Z,1.50
2018-09-12T21:36:27.651Z,1.47
2018-09-12T21:38:57.333Z,1.40
2018-09-12T21:41:27.120Z,1.30
2018-09-12T21:43:56.808Z,1.40
2018-09-12T21:46:26.485Z,1.13
2018-09-12T21:48:56.207Z,0.70
2018-09-12T21:51:25.888Z,1.17
2018-09-12T21:53:55.588Z,0.80
2018-09-12T21:56:25.313Z,0.90
2018-09-12T21:58:54.987Z,0.70
2018-09-12T22:01:25.521Z,0.77
2018-09-12T22:03:55.489Z,0.80
2018-09-12T22:06:25.219Z,0.60
2018-09-12T22:08:54.898Z,1.10
2018-09-12T22:11:24.576Z,0.90
2018-09-12T22:13:54.312Z,0.90
2018-09-12T22:16:23.975Z,0.77
2018-09-12T22:18:53.669Z,1.20
2018-09-12T22:21:23.407Z,0.90
2018-09-12T22:23:53.146Z,0.83
2018-09-12T22:26:22.832Z,0.80
2018-09-12T22:28:52.526Z,0.67
2018-09-12T22:31:22.220Z,0.90
2018-09-12T22:33:51.997Z,0.90
2018-09-12T22:36:21.691Z,0.60
2018-09-12T22:38:51.356Z,0.70
2018-09-12T22:41:21.055Z,0.90
2018-09-12T22:43:50.796Z,0.70
2018-09-12T22:46:20.479Z,0.70
2018-09-12T22:48:50.176Z,0.80
2018-09-12T22:51:19.870Z,0.70
2018-09-12T22:53:49.537Z,0.90
2018-09-12T22:56:19.257Z,0.73
2018-09-12T22:58:48.921Z,0.67
2018-09-12T23:01:19.697Z,0.73
2018-09-12T23:03:49.373Z,0.93
2018-09-12T23:06:19.065Z,0.70
2018-09-12T23:08:48.846Z,0.70
2018-09-12T23:11:18.509Z,0.77
2018-09-12T23:13:48.212Z,0.73
2018-09-12T23:16:17.880Z,0.80
2018-09-12T23:18:47.565Z,0.80
2018-09-12T23:21:17.281Z,0.60
2018-09-12T23:23:46.941Z,0.83
2018-09-12T23:26:16.603Z,0.83
2018-09-12T23:28:46.286Z,0.80
2018-09-12T23:31:15.929Z,0.80
2018-09-12T23:33:45.612Z,1.00
2018-09-12T23:36:15.280Z,0.90
2018-09-12T23:38:44.916Z,0.90
2018-09-12T23:41:14.576Z,1.03
2018-09-12T23:43:44.256Z,1.00
2018-09-12T23:46:13.906Z,1.00
2018-09-12T23:48:43.576Z,1.03
2018-09-12T23:51:13.285Z,1.00
2018-09-12T23:53:42.963Z,1.10
2018-09-12T23:56:12.612Z,1.53
2018-09-12T23:58:42.334Z,1.60
